Holden, UT (84636)

10:23 AM MST on March 02, 2015 (GMT -0700)
MesoWest Flowell UT US UCC-AGNET | Change Station
CLOSE
Current Station
Personal Weather Station
Location: Aurora, UT
Elevation: 4734 ft
Nearby Weather Stations

Elev 4734 ft 38.96 °N, 112.00 °W | Updated 23 minutes ago

Snow
Snow
34 °F
Feels Like 34 °F
N
1
Wind Variable Wind from SW
Gusts 2.0 mph

Today
High -- | Low -- °F
--% Chance of Precip.
Yesterday
High -- | Low -- °F
Precip. -- in
7:00 AM 6:22 PM
Waxing Gibbous, 92% visible
Pressure 29.74 in
Visibility 1.2 miles
Clouds Few 800 ft
Overcast 1400 ft
Windchill 34 °F
Dew Point 34 °F
Humidity 100%
Rainfall -999.00 in
Snow Depth Not available.
UV 1 out of 12
Pollen .70 out of 12
Air Quality Not available.
Flu Activity Not available.
SPECI KMLF 021715Z AUTO 00000KT 1 1/4SM -SN BR FEW008 OVC014 01/01 A2974 RMK AO2 P0002 T00110006 TSNO

More Conditions Fewer Conditions

Pressure 29.74 in
Visibility 1.2 miles
Clouds Few 800 ft
Overcast 1400 ft
Windchill 34 °F
Dew Point 34 °F
Humidity 100%
Rainfall -999.00 in
Snow Depth Not available.
UV 1 out of 12
Pollen .70 out of 12
Air Quality Not available.
Flu Activity Not available.
SPECI KMLF 021715Z AUTO 00000KT 1 1/4SM -SN BR FEW008 OVC014 01/01 A2974 RMK AO2 P0002 T00110006 TSNO

More Conditions Fewer Conditions

10-Day Weather Forecast

Almanac

Astronomy

Mar. 02, 2015 Rise Set
Actual Time
Civil Twilight
Nautical Twilight
Astronomical Twilight
Moon
Length of Visible Light
Length of Day
Tomorrow will be .
, % of the Moon is Illuminated

Today's Extremes

State Highs State Lows

Community

WunderPhotos

Upload Photos

1,801,866 photos uploaded!

WunderBlogs® & News

Nearby

Air Quality

  Air Quality AQ Index Pollutant
Not available.

Snow Depth

Station Depth Elevation

Earthquake Activity

City Distance Mag. Time & Date
Minimum magnitude displayed is 2.5.

Coastal Water Temperatures

Place Temperature

Nearby Weather Stations